EGNMEGAA

Guest
Details From EGNM - Leeds Bradford
To EGAA - Belfast Aldergrove
Flight Number -
Tags Generated
Created
Modified
Stats Distance 167 nm / 309 km
Max Altitude 0 ft / 0 m
Waypoints 2
Social Downloads 2
Likes 0
Share VATSIM

Download

Looking for another format? Having issues loading an existing format? Contact us
Advertisement - Login to hide

Notes

Generated

Route

EGNM EGAA

ID Type Via Altitude Latitude Longitude Leg Dist Tot Dist Heading (true) Name
O EGNM APT - 0 ft / 0 m 53.87335˚ -1.67205˚ - 0 nm - -
O EGAA APT - 0 ft / 0 m 54.65792˚ -6.22862˚ 166 nm 166 nm 288° / 285° -

Altitude Profile

Advertisement - Login to hide

Weather


0- 5 10 15 20 25 30 35+ Temperature / ° C

Clouds and Precipitation
Forecast for 2017-12-18 00:00 UTC. Updated 2 hours ago

Ground ~20,000 ft ~40,000 ft Winds

EGNM

Details ICAO EGNM (LBA)
Name Leeds Bradford
Region United Kingdom
Timezone Europe/London (UTC+0.0)
Stats Elevation 681 ft / 208 m (AMSL)
Location 53.866027° -1.660778°
Runways 1
Magnetic Variation 1.297° W

METAR

EGNM 172250Z 28010KT 270V350 CAVOK 04/M00 Q1021

Decode

TAF

TAF AMD EGNM 171803Z 1718/1818 29012KT 9999 SCT020 TEMPO 1718/1721 29018G28KT PROB30 1806/1811 6000 PROB40 1816/1818 7000

Decode

Departure Runways

ID Width Length Bearing (true) Bearing (mag) Surface Threshold Offset Overrun Length
14 151 ft / 46 m 7,377 ft / 2,248 m 137.79° 139.09° Concrete 1,024 ft / 312 m 46 ft / 14 m
32 151 ft / 46 m 7,377 ft / 2,248 m 317.81° 319.11° Concrete 899 ft / 274 m 49 ft / 15 m

EGAA

Details ICAO EGAA (BFS)
Name Belfast Aldergrove
Region United Kingdom
Timezone Europe/London (UTC+0.0)
Stats Elevation 268 ft / 82 m (AMSL)
Location 54.653878° -6.220006°
Runways 2
Magnetic Variation 3.239° W

METAR

EGAA 172250Z 24008KT 9000 SCT023 BKN028 05/04 Q1024

Decode

TAF

TAF TAF EGAA 171702Z 1718/1818 24007KT 9999 SCT030 PROB30 1805/1811 0500 FG BKN000

Decode

Destination Runways

ID Width Length Bearing (true) Bearing (mag) Surface Threshold Offset Overrun Length
07 148 ft / 45 m 9,095 ft / 2,772 m 65.01° 68.25° Asphalt 0 ft / 0 m 0 ft / 0 m
17 148 ft / 45 m 5,896 ft / 1,797 m 161.98° 165.22° Asphalt 525 ft / 160 m 0 ft / 0 m
25 148 ft / 45 m 9,095 ft / 2,772 m 245.05° 248.29° Asphalt 0 ft / 0 m 0 ft / 0 m
35 148 ft / 45 m 5,896 ft / 1,797 m 341.99° 345.23° Asphalt 502 ft / 153 m 0 ft / 0 m

Approach Navaids

Runway Type Ident Frequency Range Bearing (true) Bearing (mag) Slope Elevation
17 Localiser IFT 110.90 MHz 18 nm / 33 km 162.00° 165.23° - 258 ft / 79 m (AMSL)
17 Glidescope IFT 110.90 MHz 10 nm / 19 km 161.99° 165.23° 3.00° 253 ft / 77 m (AMSL)
17 DME IFT 110.90 MHz 18 nm / 33 km - - - 253 ft / 77 m (AMSL)
25 Localiser IAG 109.90 MHz 18 nm / 33 km 245.01° 248.25° - 206 ft / 63 m (AMSL)
25 Glidescope IAG 109.90 MHz 10 nm / 19 km 245.03° 248.27° 3.00° 305 ft / 93 m (AMSL)
25 DME IAG 109.90 MHz 18 nm / 33 km - - - 305 ft / 93 m (AMSL)

Popular Alternatives